sensor_id;sensor_type;location;lat;lon;timestamp;P1;durP1;ratioP1;P2;durP2;ratioP2
74892;SDS011;63446;56.272;43.922;2023-02-12T00:00:05;24.95;;;8.15;;
74892;SDS011;63446;56.272;43.922;2023-02-12T00:02:40;24.25;;;7.35;;
74892;SDS011;63446;56.272;43.922;2023-02-12T00:05:07;25.30;;;7.63;;
74892;SDS011;63446;56.272;43.922;2023-02-12T00:07:33;29.42;;;8.05;;
74892;SDS011;63446;56.272;43.922;2023-02-12T00:09:59;24.73;;;8.25;;
74892;SDS011;63446;56.272;43.922;2023-02-12T00:12:26;22.70;;;7.40;;
74892;SDS011;63446;56.272;43.922;2023-02-12T00:14:52;26.40;;;8.40;;
74892;SDS011;63446;56.272;43.922;2023-02-12T00:17:18;25.07;;;8.40;;
74892;SDS011;63446;56.272;43.922;2023-02-12T00:19:43;20.67;;;8.13;;
74892;SDS011;63446;56.272;43.922;2023-02-12T00:22:09;24.80;;;8.57;;
74892;SDS011;63446;56.272;43.922;2023-02-12T00:24:35;26.48;;;8.85;;
74892;SDS011;63446;56.272;43.922;2023-02-12T00:27:01;29.48;;;8.27;;
74892;SDS011;63446;56.272;43.922;2023-02-12T00:29:27;27.10;;;8.40;;
74892;SDS011;63446;56.272;43.922;2023-02-12T00:31:53;27.15;;;8.05;;
74892;SDS011;63446;56.272;43.922;2023-02-12T00:34:19;22.50;;;8.13;;
74892;SDS011;63446;56.272;43.922;2023-02-12T00:36:46;24.17;;;8.23;;
74892;SDS011;63446;56.272;43.922;2023-02-12T00:39:11;27.92;;;8.93;;
74892;SDS011;63446;56.272;43.922;2023-02-12T00:41:37;25.80;;;8.20;;
74892;SDS011;63446;56.272;43.922;2023-02-12T00:44:03;22.02;;;7.70;;
74892;SDS011;63446;56.272;43.922;2023-02-12T00:46:30;23.02;;;8.05;;
74892;SDS011;63446;56.272;43.922;2023-02-12T00:48:56;27.03;;;8.93;;
74892;SDS011;63446;56.272;43.922;2023-02-12T00:51:21;25.05;;;8.45;;
74892;SDS011;63446;56.272;43.922;2023-02-12T00:53:47;17.33;;;5.13;;
74892;SDS011;63446;56.272;43.922;2023-02-12T00:56:13;25.88;;;8.82;;
74892;SDS011;63446;56.272;43.922;2023-02-12T00:58:38;31.70;;;8.90;;
74892;SDS011;63446;56.272;43.922;2023-02-12T01:01:06;26.45;;;9.10;;
74892;SDS011;63446;56.272;43.922;2023-02-12T01:03:33;22.25;;;8.10;;
74892;SDS011;63446;56.272;43.922;2023-02-12T01:05:58;30.83;;;9.02;;
74892;SDS011;63446;56.272;43.922;2023-02-12T01:08:24;27.67;;;8.90;;
74892;SDS011;63446;56.272;43.922;2023-02-12T01:10:57;26.88;;;8.93;;
74892;SDS011;63446;56.272;43.922;2023-02-12T01:13:27;23.70;;;8.17;;
74892;SDS011;63446;56.272;43.922;2023-02-12T01:16:02;28.50;;;8.80;;
74892;SDS011;63446;56.272;43.922;2023-02-12T01:18:28;31.67;;;9.10;;
74892;SDS011;63446;56.272;43.922;2023-02-12T01:20:54;25.45;;;8.23;;
74892;SDS011;63446;56.272;43.922;2023-02-12T01:23:22;27.60;;;8.67;;
74892;SDS011;63446;56.272;43.922;2023-02-12T01:25:47;25.25;;;9.18;;
74892;SDS011;63446;56.272;43.922;2023-02-12T01:28:13;27.63;;;9.63;;
74892;SDS011;63446;56.272;43.922;2023-02-12T01:30:39;29.02;;;9.48;;
74892;SDS011;63446;56.272;43.922;2023-02-12T01:33:05;27.73;;;9.13;;
74892;SDS011;63446;56.272;43.922;2023-02-12T01:35:30;24.98;;;8.30;;
74892;SDS011;63446;56.272;43.922;2023-02-12T01:37:56;27.40;;;8.67;;
74892;SDS011;63446;56.272;43.922;2023-02-12T01:40:24;27.60;;;8.50;;
74892;SDS011;63446;56.272;43.922;2023-02-12T01:42:50;26.98;;;9.02;;
74892;SDS011;63446;56.272;43.922;2023-02-12T01:45:50;27.73;;;8.97;;
74892;SDS011;63446;56.272;43.922;2023-02-12T01:48:11;29.88;;;8.57;;
74892;SDS011;63446;56.272;43.922;2023-02-12T01:50:39;27.88;;;9.25;;
74892;SDS011;63446;56.272;43.922;2023-02-12T01:53:07;24.90;;;8.90;;
74892;SDS011;63446;56.272;43.922;2023-02-12T01:55:34;23.20;;;8.30;;
74892;SDS011;63446;56.272;43.922;2023-02-12T01:58:00;24.38;;;9.48;;
74892;SDS011;63446;56.272;43.922;2023-02-12T02:00:26;23.85;;;9.05;;
74892;SDS011;63446;56.272;43.922;2023-02-12T02:02:53;23.50;;;8.90;;
74892;SDS011;63446;56.272;43.922;2023-02-12T02:05:27;30.23;;;10.17;;
74892;SDS011;63446;56.272;43.922;2023-02-12T02:07:55;23.48;;;9.38;;
74892;SDS011;63446;56.272;43.922;2023-02-12T02:10:22;32.47;;;10.60;;
74892;SDS011;63446;56.272;43.922;2023-02-12T02:12:48;27.57;;;9.37;;
74892;SDS011;63446;56.272;43.922;2023-02-12T02:15:32;29.05;;;10.07;;
74892;SDS011;63446;56.272;43.922;2023-02-12T02:18:10;28.90;;;10.32;;
74892;SDS011;63446;56.272;43.922;2023-02-12T02:38:27;31.75;;;10.43;;
74892;SDS011;63446;56.272;43.922;2023-02-12T02:41:13;28.87;;;9.73;;
74892;SDS011;63446;56.272;43.922;2023-02-12T02:43:46;25.60;;;9.88;;
74892;SDS011;63446;56.272;43.922;2023-02-12T02:46:38;31.83;;;10.38;;
74892;SDS011;63446;56.272;43.922;2023-02-12T02:49:09;30.35;;;10.48;;
74892;SDS011;63446;56.272;43.922;2023-02-12T02:51:44;34.63;;;9.88;;
74892;SDS011;63446;56.272;43.922;2023-02-12T02:54:19;30.17;;;10.77;;
74892;SDS011;63446;56.272;43.922;2023-02-12T02:56:53;33.30;;;10.93;;
74892;SDS011;63446;56.272;43.922;2023-02-12T02:59:25;30.40;;;10.40;;
74892;SDS011;63446;56.272;43.922;2023-02-12T03:02:05;29.33;;;8.98;;
74892;SDS011;63446;56.272;43.922;2023-02-12T03:05:03;29.15;;;10.15;;
74892;SDS011;63446;56.272;43.922;2023-02-12T03:08:11;28.27;;;10.13;;
74892;SDS011;63446;56.272;43.922;2023-02-12T03:10:48;30.35;;;9.70;;
74892;SDS011;63446;56.272;43.922;2023-02-12T03:13:27;24.67;;;8.90;;
74892;SDS011;63446;56.272;43.922;2023-02-12T03:15:58;25.63;;;10.20;;
74892;SDS011;63446;56.272;43.922;2023-02-12T03:18:29;31.13;;;9.98;;
74892;SDS011;63446;56.272;43.922;2023-02-12T03:21:01;31.77;;;10.13;;
74892;SDS011;63446;56.272;43.922;2023-02-12T03:23:38;30.38;;;9.85;;
74892;SDS011;63446;56.272;43.922;2023-02-12T03:26:10;26.95;;;8.93;;
74892;SDS011;63446;56.272;43.922;2023-02-12T03:28:42;33.75;;;10.63;;
74892;SDS011;63446;56.272;43.922;2023-02-12T03:31:15;28.73;;;8.85;;
74892;SDS011;63446;56.272;43.922;2023-02-12T03:33:53;28.20;;;9.73;;
74892;SDS011;63446;56.272;43.922;2023-02-12T03:36:52;30.70;;;9.82;;
74892;SDS011;63446;56.272;43.922;2023-02-12T03:42:20;29.73;;;9.23;;
74892;SDS011;63446;56.272;43.922;2023-02-12T03:50:16;24.20;;;9.48;;
74892;SDS011;63446;56.272;43.922;2023-02-12T03:52:48;26.95;;;9.45;;
74892;SDS011;63446;56.272;43.922;2023-02-12T03:55:15;27.42;;;8.82;;
74892;SDS011;63446;56.272;43.922;2023-02-12T03:57:42;27.73;;;10.38;;
74892;SDS011;63446;56.272;43.922;2023-02-12T04:00:16;26.37;;;9.17;;
74892;SDS011;63446;56.272;43.922;2023-02-12T04:02:46;26.58;;;9.23;;
74892;SDS011;63446;56.272;43.922;2023-02-12T04:05:22;27.13;;;8.88;;
74892;SDS011;63446;56.272;43.922;2023-02-12T04:07:50;26.70;;;9.60;;
74892;SDS011;63446;56.272;43.922;2023-02-12T04:10:18;25.27;;;8.98;;
74892;SDS011;63446;56.272;43.922;2023-02-12T04:12:51;25.80;;;9.53;;
74892;SDS011;63446;56.272;43.922;2023-02-12T04:18:19;29.33;;;9.48;;
74892;SDS011;63446;56.272;43.922;2023-02-12T04:26:33;24.60;;;8.23;;
74892;SDS011;63446;56.272;43.922;2023-02-12T04:29:26;22.40;;;7.97;;
74892;SDS011;63446;56.272;43.922;2023-02-12T04:32:17;28.42;;;9.18;;
74892;SDS011;63446;56.272;43.922;2023-02-12T04:34:51;26.58;;;9.52;;
74892;SDS011;63446;56.272;43.922;2023-02-12T04:40:02;27.20;;;9.73;;
74892;SDS011;63446;56.272;43.922;2023-02-12T04:42:44;29.42;;;10.00;;
74892;SDS011;63446;56.272;43.922;2023-02-12T04:45:13;30.83;;;9.80;;
74892;SDS011;63446;56.272;43.922;2023-02-12T04:47:41;31.58;;;10.02;;
74892;SDS011;63446;56.272;43.922;2023-02-12T04:50:07;24.95;;;9.23;;
74892;SDS011;63446;56.272;43.922;2023-02-12T04:52:33;26.97;;;9.67;;
74892;SDS011;63446;56.272;43.922;2023-02-12T04:55:00;26.75;;;9.63;;
74892;SDS011;63446;56.272;43.922;2023-02-12T04:57:26;29.30;;;10.52;;
74892;SDS011;63446;56.272;43.922;2023-02-12T04:59:51;28.83;;;9.50;;
74892;SDS011;63446;56.272;43.922;2023-02-12T05:02:18;29.83;;;9.88;;
74892;SDS011;63446;56.272;43.922;2023-02-12T05:04:44;25.25;;;10.00;;
74892;SDS011;63446;56.272;43.922;2023-02-12T05:07:11;29.98;;;9.65;;
74892;SDS011;63446;56.272;43.922;2023-02-12T05:09:36;25.73;;;9.93;;
74892;SDS011;63446;56.272;43.922;2023-02-12T05:12:02;26.98;;;9.55;;
74892;SDS011;63446;56.272;43.922;2023-02-12T05:14:28;27.02;;;9.85;;
74892;SDS011;63446;56.272;43.922;2023-02-12T05:16:54;25.40;;;9.10;;
74892;SDS011;63446;56.272;43.922;2023-02-12T05:19:21;30.13;;;8.68;;
74892;SDS011;63446;56.272;43.922;2023-02-12T05:21:49;31.23;;;10.77;;
74892;SDS011;63446;56.272;43.922;2023-02-12T05:24:15;24.83;;;9.00;;
74892;SDS011;63446;56.272;43.922;2023-02-12T05:26:41;32.50;;;9.65;;
74892;SDS011;63446;56.272;43.922;2023-02-12T05:29:07;27.90;;;10.03;;
74892;SDS011;63446;56.272;43.922;2023-02-12T05:31:34;26.30;;;9.82;;
74892;SDS011;63446;56.272;43.922;2023-02-12T05:34:00;33.08;;;10.82;;
74892;SDS011;63446;56.272;43.922;2023-02-12T05:36:26;29.27;;;9.57;;
74892;SDS011;63446;56.272;43.922;2023-02-12T05:38:52;31.40;;;9.90;;
74892;SDS011;63446;56.272;43.922;2023-02-12T05:41:23;26.52;;;9.30;;
74892;SDS011;63446;56.272;43.922;2023-02-12T05:43:49;27.65;;;9.70;;
74892;SDS011;63446;56.272;43.922;2023-02-12T05:46:19;27.60;;;9.48;;
74892;SDS011;63446;56.272;43.922;2023-02-12T05:48:47;26.83;;;10.03;;
74892;SDS011;63446;56.272;43.922;2023-02-12T05:51:16;37.00;;;10.23;;
74892;SDS011;63446;56.272;43.922;2023-02-12T05:53:48;27.25;;;9.98;;
74892;SDS011;63446;56.272;43.922;2023-02-12T05:58:45;28.07;;;10.03;;
74892;SDS011;63446;56.272;43.922;2023-02-12T06:01:19;25.50;;;10.10;;
74892;SDS011;63446;56.272;43.922;2023-02-12T06:03:47;32.78;;;10.85;;
74892;SDS011;63446;56.272;43.922;2023-02-12T06:06:13;29.37;;;9.93;;
74892;SDS011;63446;56.272;43.922;2023-02-12T06:08:40;25.73;;;8.82;;
74892;SDS011;63446;56.272;43.922;2023-02-12T06:11:07;28.65;;;9.82;;
74892;SDS011;63446;56.272;43.922;2023-02-12T06:13:35;30.13;;;10.88;;
74892;SDS011;63446;56.272;43.922;2023-02-12T06:16:01;21.20;;;8.97;;
74892;SDS011;63446;56.272;43.922;2023-02-12T06:18:27;26.35;;;9.13;;
74892;SDS011;63446;56.272;43.922;2023-02-12T06:20:54;23.95;;;9.43;;
74892;SDS011;63446;56.272;43.922;2023-02-12T06:23:22;27.83;;;8.73;;
74892;SDS011;63446;56.272;43.922;2023-02-12T06:25:49;27.52;;;10.52;;
74892;SDS011;63446;56.272;43.922;2023-02-12T06:28:16;28.92;;;9.40;;
74892;SDS011;63446;56.272;43.922;2023-02-12T06:30:43;26.15;;;10.25;;
74892;SDS011;63446;56.272;43.922;2023-02-12T06:33:09;30.58;;;9.13;;
74892;SDS011;63446;56.272;43.922;2023-02-12T06:35:35;28.57;;;9.37;;
74892;SDS011;63446;56.272;43.922;2023-02-12T06:38:02;25.77;;;9.23;;
74892;SDS011;63446;56.272;43.922;2023-02-12T06:40:29;26.48;;;9.35;;
74892;SDS011;63446;56.272;43.922;2023-02-12T06:42:54;25.57;;;9.87;;
74892;SDS011;63446;56.272;43.922;2023-02-12T06:45:20;23.83;;;9.30;;
74892;SDS011;63446;56.272;43.922;2023-02-12T06:47:46;24.98;;;8.05;;
74892;SDS011;63446;56.272;43.922;2023-02-12T06:50:13;24.70;;;9.53;;
74892;SDS011;63446;56.272;43.922;2023-02-12T06:52:38;27.23;;;9.68;;
74892;SDS011;63446;56.272;43.922;2023-02-12T06:55:04;24.53;;;9.00;;
74892;SDS011;63446;56.272;43.922;2023-02-12T06:57:30;26.48;;;9.98;;
74892;SDS011;63446;56.272;43.922;2023-02-12T06:59:56;28.27;;;9.98;;
74892;SDS011;63446;56.272;43.922;2023-02-12T07:02:22;27.33;;;9.83;;
74892;SDS011;63446;56.272;43.922;2023-02-12T07:04:48;26.58;;;9.52;;
74892;SDS011;63446;56.272;43.922;2023-02-12T07:07:14;26.93;;;9.87;;
74892;SDS011;63446;56.272;43.922;2023-02-12T07:09:40;25.55;;;9.75;;
74892;SDS011;63446;56.272;43.922;2023-02-12T07:12:06;29.90;;;10.63;;
74892;SDS011;63446;56.272;43.922;2023-02-12T07:14:32;23.27;;;9.20;;
74892;SDS011;63446;56.272;43.922;2023-02-12T07:16:59;26.03;;;9.43;;
74892;SDS011;63446;56.272;43.922;2023-02-12T07:19:28;25.33;;;9.18;;
74892;SDS011;63446;56.272;43.922;2023-02-12T07:21:55;28.23;;;9.55;;
74892;SDS011;63446;56.272;43.922;2023-02-12T07:24:20;28.58;;;10.20;;
74892;SDS011;63446;56.272;43.922;2023-02-12T07:26:47;28.93;;;10.00;;
74892;SDS011;63446;56.272;43.922;2023-02-12T07:29:13;26.10;;;10.40;;
74892;SDS011;63446;56.272;43.922;2023-02-12T07:31:39;25.05;;;10.40;;
74892;SDS011;63446;56.272;43.922;2023-02-12T07:34:05;26.25;;;9.75;;
74892;SDS011;63446;56.272;43.922;2023-02-12T07:36:31;22.50;;;9.00;;
74892;SDS011;63446;56.272;43.922;2023-02-12T07:38:58;24.88;;;9.80;;
74892;SDS011;63446;56.272;43.922;2023-02-12T07:41:25;25.70;;;9.95;;
74892;SDS011;63446;56.272;43.922;2023-02-12T07:43:56;32.13;;;10.88;;
74892;SDS011;63446;56.272;43.922;2023-02-12T07:46:32;25.77;;;10.00;;
74892;SDS011;63446;56.272;43.922;2023-02-12T07:49:02;28.35;;;9.65;;
74892;SDS011;63446;56.272;43.922;2023-02-12T07:51:30;25.02;;;9.88;;
74892;SDS011;63446;56.272;43.922;2023-02-12T07:53:58;28.40;;;9.95;;
74892;SDS011;63446;56.272;43.922;2023-02-12T07:56:26;24.85;;;9.88;;
74892;SDS011;63446;56.272;43.922;2023-02-12T07:58:57;27.87;;;10.33;;
74892;SDS011;63446;56.272;43.922;2023-02-12T08:01:35;24.52;;;9.55;;
74892;SDS011;63446;56.272;43.922;2023-02-12T08:04:07;27.63;;;9.85;;
74892;SDS011;63446;56.272;43.922;2023-02-12T08:06:37;29.65;;;10.70;;
74892;SDS011;63446;56.272;43.922;2023-02-12T08:09:06;30.10;;;10.57;;
74892;SDS011;63446;56.272;43.922;2023-02-12T08:11:34;25.93;;;8.73;;
74892;SDS011;63446;56.272;43.922;2023-02-12T08:14:01;27.83;;;10.48;;
74892;SDS011;63446;56.272;43.922;2023-02-12T08:16:28;30.15;;;11.73;;
74892;SDS011;63446;56.272;43.922;2023-02-12T08:18:56;27.90;;;10.38;;
74892;SDS011;63446;56.272;43.922;2023-02-12T08:21:23;28.48;;;10.40;;
74892;SDS011;63446;56.272;43.922;2023-02-12T08:23:55;28.03;;;10.80;;
74892;SDS011;63446;56.272;43.922;2023-02-12T08:26:23;26.95;;;10.63;;
74892;SDS011;63446;56.272;43.922;2023-02-12T08:28:57;32.67;;;12.15;;
74892;SDS011;63446;56.272;43.922;2023-02-12T08:31:27;31.42;;;11.35;;
74892;SDS011;63446;56.272;43.922;2023-02-12T08:33:56;31.20;;;11.35;;
74892;SDS011;63446;56.272;43.922;2023-02-12T08:36:24;26.67;;;11.10;;
74892;SDS011;63446;56.272;43.922;2023-02-12T08:39:02;24.25;;;10.32;;
74892;SDS011;63446;56.272;43.922;2023-02-12T08:41:29;32.17;;;11.90;;
74892;SDS011;63446;56.272;43.922;2023-02-12T08:43:57;30.48;;;11.82;;
74892;SDS011;63446;56.272;43.922;2023-02-12T08:46:26;31.63;;;11.38;;
74892;SDS011;63446;56.272;43.922;2023-02-12T08:48:55;27.83;;;10.77;;
74892;SDS011;63446;56.272;43.922;2023-02-12T08:51:26;30.90;;;10.43;;
74892;SDS011;63446;56.272;43.922;2023-02-12T08:53:55;31.92;;;11.90;;
74892;SDS011;63446;56.272;43.922;2023-02-12T08:56:24;27.90;;;10.60;;
74892;SDS011;63446;56.272;43.922;2023-02-12T08:58:50;29.00;;;11.27;;
74892;SDS011;63446;56.272;43.922;2023-02-12T09:01:21;30.43;;;12.20;;
74892;SDS011;63446;56.272;43.922;2023-02-12T09:03:48;31.27;;;11.65;;
74892;SDS011;63446;56.272;43.922;2023-02-12T09:06:15;30.58;;;11.60;;
74892;SDS011;63446;56.272;43.922;2023-02-12T09:08:43;25.42;;;10.45;;
74892;SDS011;63446;56.272;43.922;2023-02-12T09:11:11;27.40;;;9.20;;
74892;SDS011;63446;56.272;43.922;2023-02-12T09:13:41;26.63;;;9.87;;
74892;SDS011;63446;56.272;43.922;2023-02-12T09:16:07;28.58;;;10.43;;
74892;SDS011;63446;56.272;43.922;2023-02-12T09:18:34;25.65;;;10.32;;
74892;SDS011;63446;56.272;43.922;2023-02-12T09:21:01;28.02;;;10.90;;
74892;SDS011;63446;56.272;43.922;2023-02-12T09:23:29;31.92;;;11.18;;
74892;SDS011;63446;56.272;43.922;2023-02-12T09:25:55;26.97;;;11.33;;
74892;SDS011;63446;56.272;43.922;2023-02-12T09:28:22;27.30;;;10.27;;
74892;SDS011;63446;56.272;43.922;2023-02-12T09:30:48;28.50;;;9.85;;
74892;SDS011;63446;56.272;43.922;2023-02-12T09:33:14;22.33;;;9.52;;
74892;SDS011;63446;56.272;43.922;2023-02-12T09:35:40;29.83;;;10.83;;
74892;SDS011;63446;56.272;43.922;2023-02-12T09:38:07;32.88;;;10.93;;
74892;SDS011;63446;56.272;43.922;2023-02-12T09:45:55;31.92;;;11.55;;
74892;SDS011;63446;56.272;43.922;2023-02-12T09:51:04;29.88;;;10.73;;
74892;SDS011;63446;56.272;43.922;2023-02-12T09:53:34;30.67;;;11.43;;
74892;SDS011;63446;56.272;43.922;2023-02-12T09:56:17;33.13;;;12.32;;
74892;SDS011;63446;56.272;43.922;2023-02-12T10:01:21;29.23;;;11.40;;
74892;SDS011;63446;56.272;43.922;2023-02-12T10:03:49;29.60;;;12.05;;
74892;SDS011;63446;56.272;43.922;2023-02-12T10:06:26;31.30;;;12.13;;
74892;SDS011;63446;56.272;43.922;2023-02-12T10:22:42;38.30;;;14.05;;
74892;SDS011;63446;56.272;43.922;2023-02-12T10:28:16;30.50;;;11.50;;
74892;SDS011;63446;56.272;43.922;2023-02-12T10:33:26;30.45;;;11.80;;
74892;SDS011;63446;56.272;43.922;2023-02-12T10:38:33;36.05;;;13.43;;
74892;SDS011;63446;56.272;43.922;2023-02-12T10:41:04;33.03;;;12.17;;
74892;SDS011;63446;56.272;43.922;2023-02-12T10:43:30;28.08;;;11.40;;
74892;SDS011;63446;56.272;43.922;2023-02-12T10:45:56;39.13;;;13.17;;
74892;SDS011;63446;56.272;43.922;2023-02-12T10:48:23;29.90;;;12.45;;
74892;SDS011;63446;56.272;43.922;2023-02-12T10:53:40;28.77;;;11.90;;
74892;SDS011;63446;56.272;43.922;2023-02-12T10:58:38;28.55;;;10.45;;
74892;SDS011;63446;56.272;43.922;2023-02-12T11:01:16;27.13;;;9.77;;
74892;SDS011;63446;56.272;43.922;2023-02-12T11:03:46;33.55;;;12.07;;
74892;SDS011;63446;56.272;43.922;2023-02-12T11:06:14;32.47;;;12.77;;
74892;SDS011;63446;56.272;43.922;2023-02-12T11:08:42;35.95;;;13.55;;
74892;SDS011;63446;56.272;43.922;2023-02-12T11:13:40;29.67;;;11.80;;
74892;SDS011;63446;56.272;43.922;2023-02-12T11:16:13;36.88;;;13.05;;
74892;SDS011;63446;56.272;43.922;2023-02-12T11:18:56;30.10;;;12.07;;
74892;SDS011;63446;56.272;43.922;2023-02-12T11:21:23;29.85;;;11.00;;
74892;SDS011;63446;56.272;43.922;2023-02-12T11:23:49;29.25;;;11.20;;
74892;SDS011;63446;56.272;43.922;2023-02-12T11:29:00;27.50;;;11.68;;
74892;SDS011;63446;56.272;43.922;2023-02-12T11:31:29;30.50;;;11.57;;
74892;SDS011;63446;56.272;43.922;2023-02-12T11:36:29;32.53;;;12.95;;
74892;SDS011;63446;56.272;43.922;2023-02-12T11:38:59;38.20;;;14.63;;
74892;SDS011;63446;56.272;43.922;2023-02-12T11:41:26;35.72;;;14.13;;
74892;SDS011;63446;56.272;43.922;2023-02-12T11:44:37;37.97;;;13.47;;
74892;SDS011;63446;56.272;43.922;2023-02-12T11:47:05;32.08;;;12.02;;
74892;SDS011;63446;56.272;43.922;2023-02-12T11:49:42;28.80;;;10.57;;
74892;SDS011;63446;56.272;43.922;2023-02-12T11:52:36;26.85;;;11.63;;
74892;SDS011;63446;56.272;43.922;2023-02-12T11:55:24;33.95;;;12.40;;
74892;SDS011;63446;56.272;43.922;2023-02-12T11:57:51;34.07;;;12.63;;
74892;SDS011;63446;56.272;43.922;2023-02-12T12:00:24;32.28;;;12.00;;
74892;SDS011;63446;56.272;43.922;2023-02-12T12:06:04;31.50;;;11.73;;
74892;SDS011;63446;56.272;43.922;2023-02-12T12:14:21;29.95;;;11.63;;
74892;SDS011;63446;56.272;43.922;2023-02-12T12:16:55;35.45;;;12.75;;
74892;SDS011;63446;56.272;43.922;2023-02-12T12:20:08;30.98;;;12.18;;
74892;SDS011;63446;56.272;43.922;2023-02-12T12:25:34;36.30;;;13.53;;
74892;SDS011;63446;56.272;43.922;2023-02-12T12:33:45;34.33;;;12.95;;
74892;SDS011;63446;56.272;43.922;2023-02-12T12:36:58;33.97;;;12.80;;
74892;SDS011;63446;56.272;43.922;2023-02-12T12:39:14;32.67;;;13.80;;
74892;SDS011;63446;56.272;43.922;2023-02-12T12:56:04;40.05;;;13.50;;
74892;SDS011;63446;56.272;43.922;2023-02-12T13:07:09;32.80;;;11.47;;
74892;SDS011;63446;56.272;43.922;2023-02-12T13:09:45;32.25;;;12.15;;
74892;SDS011;63446;56.272;43.922;2023-02-12T13:12:32;36.35;;;13.18;;
74892;SDS011;63446;56.272;43.922;2023-02-12T13:15:18;32.22;;;12.00;;
74892;SDS011;63446;56.272;43.922;2023-02-12T13:23:39;33.55;;;12.75;;
74892;SDS011;63446;56.272;43.922;2023-02-12T13:26:13;31.20;;;12.52;;
74892;SDS011;63446;56.272;43.922;2023-02-12T13:28:50;31.23;;;10.73;;
74892;SDS011;63446;56.272;43.922;2023-02-12T13:31:21;35.58;;;11.85;;
74892;SDS011;63446;56.272;43.922;2023-02-12T13:33:57;31.50;;;12.60;;
74892;SDS011;63446;56.272;43.922;2023-02-12T13:36:27;29.00;;;11.25;;
74892;SDS011;63446;56.272;43.922;2023-02-12T13:38:58;30.67;;;11.38;;
74892;SDS011;63446;56.272;43.922;2023-02-12T13:41:31;37.55;;;12.85;;
74892;SDS011;63446;56.272;43.922;2023-02-12T13:46:55;36.35;;;12.25;;
74892;SDS011;63446;56.272;43.922;2023-02-12T13:55:03;36.20;;;11.98;;
74892;SDS011;63446;56.272;43.922;2023-02-12T13:58:37;34.67;;;11.70;;
74892;SDS011;63446;56.272;43.922;2023-02-12T14:03:27;33.25;;;11.57;;
74892;SDS011;63446;56.272;43.922;2023-02-12T14:08:52;33.92;;;12.45;;
74892;SDS011;63446;56.272;43.922;2023-02-12T14:11:45;35.00;;;11.90;;
74892;SDS011;63446;56.272;43.922;2023-02-12T14:14:22;34.28;;;13.25;;
74892;SDS011;63446;56.272;43.922;2023-02-12T14:16:55;37.92;;;13.45;;
74892;SDS011;63446;56.272;43.922;2023-02-12T14:22:12;39.53;;;13.10;;
74892;SDS011;63446;56.272;43.922;2023-02-12T14:27:51;34.85;;;13.43;;
74892;SDS011;63446;56.272;43.922;2023-02-12T14:30:20;34.90;;;12.80;;
74892;SDS011;63446;56.272;43.922;2023-02-12T14:35:37;38.85;;;13.82;;
74892;SDS011;63446;56.272;43.922;2023-02-12T14:43:24;42.88;;;15.02;;
74892;SDS011;63446;56.272;43.922;2023-02-12T14:45:52;41.03;;;15.50;;
74892;SDS011;63446;56.272;43.922;2023-02-12T14:48:39;37.05;;;13.50;;
74892;SDS011;63446;56.272;43.922;2023-02-12T14:51:18;35.83;;;13.53;;
74892;SDS011;63446;56.272;43.922;2023-02-12T14:53:55;37.13;;;13.40;;
74892;SDS011;63446;56.272;43.922;2023-02-12T14:56:24;37.65;;;13.45;;
74892;SDS011;63446;56.272;43.922;2023-02-12T14:58:50;60.00;;;20.48;;
74892;SDS011;63446;56.272;43.922;2023-02-12T15:01:24;47.78;;;16.52;;
74892;SDS011;63446;56.272;43.922;2023-02-12T15:03:56;35.37;;;12.73;;
74892;SDS011;63446;56.272;43.922;2023-02-12T15:06:23;36.75;;;13.20;;
74892;SDS011;63446;56.272;43.922;2023-02-12T15:09:02;32.72;;;12.73;;
74892;SDS011;63446;56.272;43.922;2023-02-12T15:11:38;41.28;;;13.32;;
74892;SDS011;63446;56.272;43.922;2023-02-12T15:14:14;34.53;;;12.65;;
74892;SDS011;63446;56.272;43.922;2023-02-12T15:17:06;34.93;;;12.43;;
74892;SDS011;63446;56.272;43.922;2023-02-12T15:22:28;32.08;;;12.93;;
74892;SDS011;63446;56.272;43.922;2023-02-12T15:27:48;34.15;;;12.45;;
74892;SDS011;63446;56.272;43.922;2023-02-12T15:30:16;35.33;;;13.17;;
74892;SDS011;63446;56.272;43.922;2023-02-12T15:32:45;42.20;;;13.48;;
74892;SDS011;63446;56.272;43.922;2023-02-12T15:35:20;41.70;;;14.30;;
74892;SDS011;63446;56.272;43.922;2023-02-12T15:37:51;37.45;;;13.05;;
74892;SDS011;63446;56.272;43.922;2023-02-12T15:40:18;36.55;;;12.95;;
74892;SDS011;63446;56.272;43.922;2023-02-12T15:42:57;31.57;;;12.70;;
74892;SDS011;63446;56.272;43.922;2023-02-12T15:45:35;33.72;;;12.80;;
74892;SDS011;63446;56.272;43.922;2023-02-12T15:48:06;38.25;;;12.82;;
74892;SDS011;63446;56.272;43.922;2023-02-12T15:53:15;39.75;;;13.18;;
74892;SDS011;63446;56.272;43.922;2023-02-12T15:55:43;36.07;;;13.00;;
74892;SDS011;63446;56.272;43.922;2023-02-12T15:58:20;33.92;;;12.48;;
74892;SDS011;63446;56.272;43.922;2023-02-12T16:00:48;34.42;;;12.23;;
74892;SDS011;63446;56.272;43.922;2023-02-12T16:03:19;29.30;;;11.00;;
74892;SDS011;63446;56.272;43.922;2023-02-12T16:05:48;34.63;;;11.77;;
74892;SDS011;63446;56.272;43.922;2023-02-12T16:08:19;36.80;;;13.93;;
74892;SDS011;63446;56.272;43.922;2023-02-12T16:10:47;37.88;;;13.50;;
74892;SDS011;63446;56.272;43.922;2023-02-12T16:13:30;35.33;;;12.80;;
74892;SDS011;63446;56.272;43.922;2023-02-12T16:16:04;31.92;;;11.75;;
74892;SDS011;63446;56.272;43.922;2023-02-12T16:18:37;28.92;;;11.07;;
74892;SDS011;63446;56.272;43.922;2023-02-12T16:21:13;32.90;;;12.00;;
74892;SDS011;63446;56.272;43.922;2023-02-12T16:23:43;31.63;;;11.20;;
74892;SDS011;63446;56.272;43.922;2023-02-12T16:26:44;31.83;;;11.40;;
74892;SDS011;63446;56.272;43.922;2023-02-12T16:29:02;31.88;;;11.60;;
74892;SDS011;63446;56.272;43.922;2023-02-12T16:31:28;34.87;;;12.77;;
74892;SDS011;63446;56.272;43.922;2023-02-12T16:33:55;33.90;;;12.35;;
74892;SDS011;63446;56.272;43.922;2023-02-12T16:38:50;32.80;;;12.13;;
74892;SDS011;63446;56.272;43.922;2023-02-12T16:46:44;32.13;;;11.48;;
74892;SDS011;63446;56.272;43.922;2023-02-12T16:49:16;33.13;;;11.25;;
74892;SDS011;63446;56.272;43.922;2023-02-12T16:51:44;33.05;;;11.25;;
74892;SDS011;63446;56.272;43.922;2023-02-12T16:56:50;34.90;;;11.37;;
74892;SDS011;63446;56.272;43.922;2023-02-12T16:59:16;31.33;;;12.35;;
74892;SDS011;63446;56.272;43.922;2023-02-12T17:01:43;28.30;;;10.77;;
74892;SDS011;63446;56.272;43.922;2023-02-12T17:04:35;31.55;;;11.27;;
74892;SDS011;63446;56.272;43.922;2023-02-12T17:07:01;27.63;;;10.38;;
74892;SDS011;63446;56.272;43.922;2023-02-12T17:09:27;31.47;;;10.23;;
74892;SDS011;63446;56.272;43.922;2023-02-12T17:11:56;31.65;;;11.18;;
74892;SDS011;63446;56.272;43.922;2023-02-12T17:14:22;29.75;;;10.18;;
74892;SDS011;63446;56.272;43.922;2023-02-12T17:16:49;28.38;;;10.55;;
74892;SDS011;63446;56.272;43.922;2023-02-12T17:19:15;27.57;;;10.33;;
74892;SDS011;63446;56.272;43.922;2023-02-12T17:21:42;30.55;;;10.63;;
74892;SDS011;63446;56.272;43.922;2023-02-12T17:24:22;30.65;;;11.32;;
74892;SDS011;63446;56.272;43.922;2023-02-12T17:26:51;28.98;;;10.90;;
74892;SDS011;63446;56.272;43.922;2023-02-12T17:29:18;30.50;;;10.50;;
74892;SDS011;63446;56.272;43.922;2023-02-12T17:31:47;26.63;;;9.65;;